Time;durP1;ratioP1;P1;durP2;ratioP2;P2;SDS_P1;SDS_P2;PMS_P1;PMS_P2;Temp;Humidity;BMP_temperature;BMP_pressure;BME280_temperature;BME280_humidity;BME280_pressure;Samples;Min_cycle;Max_cycle;Signal;HPM_P1;HPM_P2
2022/09/27 00:01:08;;;;;;;2.28;2.17;;;17.00;82.00;;;;;;5048562;28;20179;-73
2022/09/27 00:03:35;;;;;;;1.65;1.65;;;17.00;81.10;;;;;;5050652;28;20199;-74
2022/09/27 00:06:03;;;;;;;1.95;1.85;;;17.00;80.80;;;;;;5042906;28;20191;-74
2022/09/27 00:08:28;;;;;;;2.35;2.25;;;17.00;82.10;;;;;;5052321;28;20569;-74
2022/09/27 00:10:59;;;;;;;1.80;1.80;;;17.10;82.00;;;;;;5050309;28;20175;-74
2022/09/27 00:13:25;;;;;;;3.05;1.63;;;17.10;82.50;;;;;;5048292;28;20188;-74
2022/09/27 00:16:04;;;;;;;1.67;1.58;;;17.10;83.80;;;;;;5047425;28;20187;-74
2022/09/27 00:18:31;;;;;;;2.55;2.05;;;17.00;81.20;;;;;;5046210;28;20306;-74
2022/09/27 00:21:05;;;;;;;2.00;1.90;;;17.10;84.70;;;;;;5051783;28;20219;-74
2022/09/27 00:23:31;;;;;;;1.83;1.83;;;17.10;82.90;;;;;;5049320;28;20179;-74
2022/09/27 00:25:58;;;;;;;1.80;1.80;;;17.10;82.30;;;;;;5048545;28;20186;-74
2022/09/27 00:28:24;;;;;;;2.13;2.03;;;17.10;82.60;;;;;;5049503;28;20180;-74
2022/09/27 00:30:50;;;;;;;1.63;1.63;;;17.10;83.80;;;;;;5055813;28;20252;-74
2022/09/27 00:33:16;;;;;;;1.50;1.50;;;17.10;83.70;;;;;;5049669;28;20183;-74
2022/09/27 00:35:43;;;;;;;3.17;1.75;;;17.10;84.20;;;;;;5046767;28;20206;-74
2022/09/27 00:38:09;;;;;;;1.75;1.67;;;17.10;84.60;;;;;;5049658;28;20207;-74
2022/09/27 00:40:35;;;;;;;1.73;1.63;;;17.10;83.80;;;;;;5047003;28;20747;-74
2022/09/27 00:43:00;;;;;;;2.28;2.10;;;17.10;85.50;;;;;;5045283;28;20183;-74
2022/09/27 00:45:26;;;;;;;1.63;1.63;;;17.10;85.40;;;;;;5052729;28;20664;-74
2022/09/27 00:48:00;;;;;;;1.60;1.55;;;17.10;84.90;;;;;;5048836;28;20183;-74
2022/09/27 00:50:34;;;;;;;1.63;1.63;;;17.10;86.00;;;;;;5048318;28;20202;-74
2022/09/27 00:53:11;;;;;;;1.83;1.73;;;17.10;86.50;;;;;;5050737;28;20231;-74
2022/09/27 00:55:47;;;;;;;1.92;1.85;;;17.00;86.60;;;;;;5050324;28;20278;-74
2022/09/27 00:58:17;;;;;;;1.90;1.80;;;16.90;84.90;;;;;;5052041;28;20187;-74
2022/09/27 01:00:47;;;;;;;2.20;2.10;;;16.90;84.60;;;;;;5049203;28;20579;-73
2022/09/27 01:03:23;;;;;;;1.92;1.92;;;16.90;87.70;;;;;;5045136;28;20669;-74
2022/09/27 01:05:49;;;;;;;2.40;2.30;;;16.80;86.40;;;;;;5046883;28;20194;-74
2022/09/27 01:08:15;;;;;;;1.70;1.65;;;16.80;89.20;;;;;;5041895;28;21680;-72
2022/09/27 01:10:52;;;;;;;1.83;1.83;;;16.70;87.70;;;;;;5052476;28;20175;-72
2022/09/27 01:13:29;;;;;;;2.63;2.40;;;16.50;86.30;;;;;;5050395;28;20210;-72
2022/09/27 01:16:12;;;;;;;1.92;1.90;;;16.50;85.50;;;;;;5050964;28;20193;-73
2022/09/27 01:19:15;;;;;;;2.90;2.35;;;16.50;88.70;;;;;;5046613;28;20596;-73
2022/09/27 01:22:15;;;;;;;1.92;1.92;;;16.40;85.40;;;;;;5028581;28;20203;-73
2022/09/27 01:25:01;;;;;;;1.95;1.95;;;16.50;88.90;;;;;;4953501;28;20229;-73
2022/09/27 01:27:41;;;;;;;2.10;1.92;;;16.50;88.60;;;;;;4955415;28;20298;-74
2022/09/27 01:30:21;;;;;;;1.77;1.77;;;16.50;87.40;;;;;;4956554;28;20406;-72
2022/09/27 01:32:55;;;;;;;1.63;1.63;;;16.50;90.20;;;;;;4957951;28;20848;-73
2022/09/27 01:35:25;;;;;;;4.65;2.08;;;16.40;86.90;;;;;;4962547;28;20252;-73
2022/09/27 01:38:19;;;;;;;1.95;1.92;;;16.40;88.50;;;;;;4954435;28;20719;-73
2022/09/27 01:40:50;;;;;;;2.47;2.17;;;16.40;86.90;;;;;;4961950;28;20248;-73
2022/09/27 01:43:28;;;;;;;2.15;1.80;;;16.30;86.20;;;;;;4949173;28;20207;-75
2022/09/27 01:46:00;;;;;;;2.03;1.85;;;16.30;85.90;;;;;;4959515;28;20646;-73
2022/09/27 01:48:33;;;;;;;2.55;1.65;;;16.30;86.80;;;;;;4949674;28;20194;-73
2022/09/27 01:51:23;;;;;;;1.73;1.60;;;16.40;88.40;;;;;;4959556;28;20205;-73
2022/09/27 01:53:55;;;;;;;1.67;1.58;;;16.40;89.40;;;;;;4956801;28;20240;-73
2022/09/27 01:56:30;;;;;;;3.15;1.63;;;16.40;88.70;;;;;;4958913;28;20185;-73
2022/09/27 01:59:37;;;;;;;1.90;1.80;;;16.30;86.90;;;;;;4974278;28;20645;-73
2022/09/27 02:02:07;;;;;;;2.88;2.10;;;16.30;86.10;;;;;;5028270;28;20191;-73
2022/09/27 02:04:37;;;;;;;2.03;1.92;;;16.30;87.50;;;;;;5046969;28;20266;-73
2022/09/27 02:07:27;;;;;;;1.98;1.92;;;16.40;90.10;;;;;;5048551;28;20871;-73
2022/09/27 02:09:59;;;;;;;1.73;1.63;;;16.30;87.10;;;;;;5053645;28;20770;-74
2022/09/27 02:12:30;;;;;;;2.47;2.38;;;16.20;86.30;;;;;;5045545;28;20252;-73
2022/09/27 02:15:13;;;;;;;1.58;1.58;;;16.20;88.00;;;;;;5048164;28;20596;-73
2022/09/27 02:18:09;;;;;;;1.77;1.67;;;16.30;89.70;;;;;;5056644;28;20181;-73
2022/09/27 02:20:43;;;;;;;1.80;1.70;;;16.20;87.80;;;;;;5046481;28;20208;-73
2022/09/27 02:23:47;;;;;;;1.48;1.42;;;16.10;86.80;;;;;;5048721;28;20305;-74
2022/09/27 02:26:40;;;;;;;1.45;1.45;;;16.20;90.80;;;;;;5045959;28;20214;-74
2022/09/27 02:29:30;;;;;;;1.85;1.58;;;16.20;89.30;;;;;;5017143;28;20239;-74
2022/09/27 02:31:56;;;;;;;1.67;1.67;;;16.20;90.70;;;;;;4996450;28;20199;-73
2022/09/27 02:34:25;;;;;;;1.60;1.58;;;16.00;90.30;;;;;;5015609;28;20193;-73
2022/09/27 02:36:52;;;;;;;3.22;2.00;;;16.00;90.50;;;;;;5013298;28;20990;-73
2022/09/27 02:39:18;;;;;;;1.50;1.50;;;16.00;91.10;;;;;;5014656;28;20192;-74
2022/09/27 02:41:44;;;;;;;1.60;1.50;;;16.00;91.70;;;;;;5013977;28;20185;-74
2022/09/27 02:44:12;;;;;;;1.75;1.75;;;16.00;90.70;;;;;;5016273;28;20299;-74
2022/09/27 02:47:11;;;;;;;2.08;1.88;;;16.00;90.30;;;;;;5018558;28;20189;-74
2022/09/27 02:49:39;;;;;;;2.30;2.20;;;16.00;92.90;;;;;;5016642;28;20213;-74
2022/09/27 02:52:12;;;;;;;2.00;1.90;;;16.00;90.90;;;;;;5013471;28;20187;-73
2022/09/27 02:55:13;;;;;;;2.13;1.88;;;16.00;91.80;;;;;;5013699;28;20219;-74
2022/09/27 02:57:45;;;;;;;2.30;1.73;;;15.90;88.90;;;;;;5011041;28;20190;-74
2022/09/27 03:00:18;;;;;;;2.30;2.20;;;15.80;88.30;;;;;;5011757;28;20596;-74
2022/09/27 03:02:58;;;;;;;1.80;1.70;;;15.90;89.30;;;;;;5015341;28;20549;-74
2022/09/27 03:05:27;;;;;;;1.77;1.67;;;15.90;88.00;;;;;;5037376;28;20191;-73
2022/09/27 03:07:53;;;;;;;2.10;2.00;;;15.90;87.90;;;;;;5048093;28;20187;-74
2022/09/27 03:10:25;;;;;;;3.10;1.88;;;15.90;87.40;;;;;;5054142;28;20218;-74
2022/09/27 03:12:53;;;;;;;1.92;1.83;;;15.90;87.00;;;;;;5049108;28;20195;-74
2022/09/27 03:15:19;;;;;;;3.50;1.92;;;15.90;89.00;;;;;;5048466;28;20188;-74
2022/09/27 03:17:45;;;;;;;2.47;1.70;;;16.00;88.40;;;;;;5051949;28;20179;-73
2022/09/27 03:20:11;;;;;;;1.70;1.70;;;16.00;87.00;;;;;;5047738;28;20206;-74
2022/09/27 03:22:37;;;;;;;3.53;1.88;;;16.00;86.60;;;;;;5045605;28;20211;-74
2022/09/27 03:25:04;;;;;;;2.20;1.65;;;16.00;86.40;;;;;;5045998;28;20275;-74
2022/09/27 03:27:30;;;;;;;2.13;1.95;;;16.00;86.00;;;;;;5047193;28;20721;-74
2022/09/27 03:29:57;;;;;;;1.80;1.70;;;16.00;86.90;;;;;;5045662;28;20305;-75
2022/09/27 03:32:22;;;;;;;1.65;1.65;;;16.00;86.60;;;;;;5052214;28;20214;-73
2022/09/27 03:34:48;;;;;;;2.05;1.95;;;16.10;86.40;;;;;;5049279;28;20211;-75
2022/09/27 03:37:14;;;;;;;1.92;1.83;;;16.10;86.10;;;;;;5048860;28;20186;-73
2022/09/27 03:39:39;;;;;;;2.60;2.40;;;16.10;86.60;;;;;;5046210;28;20619;-74
2022/09/27 03:42:05;;;;;;;1.75;1.65;;;16.10;86.10;;;;;;5046586;28;20182;-74
2022/09/27 03:44:31;;;;;;;1.98;1.98;;;16.20;87.70;;;;;;5045850;28;20202;-75
2022/09/27 03:46:58;;;;;;;1.42;1.42;;;16.20;87.10;;;;;;5048106;28;20195;-75
2022/09/27 03:49:23;;;;;;;2.47;1.65;;;16.10;86.00;;;;;;5048181;28;20208;-74
2022/09/27 03:51:49;;;;;;;2.30;2.20;;;16.20;86.00;;;;;;5048258;28;20205;-73
2022/09/27 03:54:15;;;;;;;2.78;2.13;;;16.20;85.90;;;;;;5052401;28;20283;-73
2022/09/27 03:56:41;;;;;;;2.03;2.03;;;16.20;85.90;;;;;;5046604;28;20183;-74
2022/09/27 03:59:06;;;;;;;1.92;1.90;;;16.20;86.70;;;;;;5042879;28;20184;-73
2022/09/27 04:01:34;;;;;;;3.72;2.00;;;16.20;86.20;;;;;;5044089;28;20370;-74
2022/09/27 04:04:00;;;;;;;2.13;1.70;;;16.20;86.50;;;;;;5052928;28;20175;-74
2022/09/27 04:06:26;;;;;;;2.38;2.28;;;16.30;90.80;;;;;;5043900;28;20191;-79
2022/09/27 04:08:52;;;;;;;2.45;2.20;;;16.30;90.00;;;;;;5047952;28;20645;-78
2022/09/27 04:11:18;;;;;;;2.33;2.10;;;16.30;90.10;;;;;;5049642;28;20336;-78
2022/09/27 04:13:46;;;;;;;2.72;2.63;;;16.30;89.80;;;;;;5050887;28;20773;-78
2022/09/27 04:16:11;;;;;;;2.25;2.15;;;16.30;88.40;;;;;;5052609;28;20186;-78
2022/09/27 04:18:37;;;;;;;2.78;2.67;;;16.20;87.70;;;;;;5049382;28;20171;-78
2022/09/27 04:21:03;;;;;;;2.75;2.65;;;16.20;88.10;;;;;;5050325;28;20194;-78
2022/09/27 04:23:29;;;;;;;4.70;2.80;;;16.20;87.30;;;;;;5045128;28;20553;-78
2022/09/27 04:25:55;;;;;;;2.85;2.65;;;16.30;91.10;;;;;;5046942;28;20556;-77
2022/09/27 04:28:21;;;;;;;2.92;2.80;;;16.30;91.90;;;;;;5046146;28;20178;-74
2022/09/27 04:30:47;;;;;;;3.20;2.67;;;16.20;92.10;;;;;;5045146;28;20182;-76
2022/09/27 04:33:13;;;;;;;3.72;3.38;;;16.20;92.10;;;;;;5054235;28;20252;-75
2022/09/27 04:38:23;;;;;;;2.83;2.72;;;16.20;92.40;;;;;;5052269;28;20231;-76
2022/09/27 04:40:50;;;;;;;4.25;3.60;;;16.20;90.90;;;;;;5051169;28;20585;-77
2022/09/27 04:43:16;;;;;;;3.28;3.13;;;16.20;92.20;;;;;;5051036;28;20542;-75
2022/09/27 04:45:45;;;;;;;2.97;2.88;;;16.30;92.10;;;;;;5053616;28;20545;-75
2022/09/27 04:48:11;;;;;;;3.28;3.08;;;16.20;90.70;;;;;;5053709;28;20180;-75
2022/09/27 04:50:36;;;;;;;3.38;3.20;;;16.20;90.80;;;;;;5054052;28;20264;-74
2022/09/27 04:53:03;;;;;;;3.55;3.25;;;16.20;91.70;;;;;;5055484;28;20286;-74
2022/09/27 04:55:28;;;;;;;3.40;3.05;;;16.20;92.00;;;;;;5055691;28;20206;-74
2022/09/27 04:57:54;;;;;;;3.88;3.63;;;16.20;90.50;;;;;;5051714;28;20645;-77
2022/09/27 05:00:20;;;;;;;3.78;3.30;;;16.20;90.10;;;;;;5052000;28;20179;-75
2022/09/27 05:02:49;;;;;;;3.47;2.88;;;16.30;92.40;;;;;;5047636;28;21072;-75
2022/09/27 05:05:15;;;;;;;4.18;3.40;;;16.30;90.90;;;;;;5052979;28;20262;-74
2022/09/27 05:07:41;;;;;;;3.00;2.90;;;16.30;90.10;;;;;;5052388;28;20262;-75
2022/09/27 05:10:07;;;;;;;3.42;3.22;;;16.30;89.90;;;;;;5054306;28;20623;-75
2022/09/27 05:12:34;;;;;;;2.83;2.72;;;16.30;89.20;;;;;;5051561;28;20190;-76
2022/09/27 05:15:00;;;;;;;3.03;2.92;;;16.30;89.70;;;;;;5056311;28;20172;-75
2022/09/27 05:17:26;;;;;;;3.30;3.10;;;16.30;89.80;;;;;;5057028;28;20183;-76
2022/09/27 05:19:52;;;;;;;3.67;3.47;;;16.30;88.80;;;;;;5056183;28;20186;-74
2022/09/27 05:22:19;;;;;;;3.47;3.28;;;16.40;89.00;;;;;;5051550;28;20226;-74
2022/09/27 05:24:46;;;;;;;3.17;2.97;;;16.40;91.60;;;;;;5055752;28;20183;-74
2022/09/27 05:27:19;;;;;;;3.45;3.22;;;16.50;92.70;;;;;;5054775;28;20194;-75
2022/09/27 05:29:48;;;;;;;3.00;2.83;;;16.50;90.70;;;;;;5055847;28;20207;-74
2022/09/27 05:32:14;;;;;;;2.42;2.33;;;16.50;90.70;;;;;;5054317;28;20187;-76
2022/09/27 05:34:40;;;;;;;2.88;2.78;;;16.50;91.60;;;;;;5051063;28;20171;-75
2022/09/27 05:37:06;;;;;;;3.03;2.90;;;16.50;91.00;;;;;;5053395;28;20206;-76
2022/09/27 05:39:32;;;;;;;3.00;2.90;;;16.50;90.20;;;;;;5049755;28;20186;-75
2022/09/27 05:41:57;;;;;;;3.60;3.40;;;16.50;90.80;;;;;;5040916;28;20218;-75
2022/09/27 05:44:24;;;;;;;3.17;2.92;;;16.60;91.80;;;;;;5050819;28;20238;-75
2022/09/27 05:46:51;;;;;;;4.88;2.90;;;16.50;90.90;;;;;;5048776;28;20170;-75
2022/09/27 05:49:16;;;;;;;3.92;2.95;;;16.60;92.50;;;;;;5047541;28;20275;-76
2022/09/27 05:51:42;;;;;;;3.92;3.40;;;16.60;91.00;;;;;;5057493;28;20183;-75
2022/09/27 05:54:08;;;;;;;4.28;3.90;;;16.60;93.40;;;;;;5051543;28;20218;-76
2022/09/27 05:56:34;;;;;;;3.05;2.85;;;16.40;93.60;;;;;;5052846;28;20191;-76
2022/09/27 05:58:59;;;;;;;3.53;3.38;;;16.40;92.20;;;;;;5045543;28;20274;-76
2022/09/27 06:01:26;;;;;;;3.30;3.20;;;16.40;92.70;;;;;;5049886;28;20180;-76
2022/09/27 06:03:53;;;;;;;3.17;2.97;;;16.40;91.50;;;;;;5048783;28;20180;-77
2022/09/27 06:06:21;;;;;;;3.53;3.33;;;16.40;91.50;;;;;;5044719;28;20203;-76
2022/09/27 06:08:48;;;;;;;4.07;3.70;;;16.40;92.20;;;;;;5055040;28;20249;-76
2022/09/27 06:11:14;;;;;;;4.90;4.03;;;16.40;91.70;;;;;;5056860;28;20186;-76
2022/09/27 06:13:40;;;;;;;3.88;3.67;;;16.50;91.80;;;;;;5050232;28;20245;-77
2022/09/27 06:16:09;;;;;;;3.95;3.60;;;16.40;90.80;;;;;;5055354;28;20207;-76
2022/09/27 06:18:35;;;;;;;4.07;3.80;;;16.50;90.10;;;;;;5054145;28;20187;-76
2022/09/27 06:21:03;;;;;;;3.42;3.33;;;16.50;90.10;;;;;;5052416;28;20197;-76
2022/09/27 06:23:32;;;;;;;3.92;3.72;;;16.60;90.40;;;;;;5051485;28;20176;-76
2022/09/27 06:26:04;;;;;;;3.83;3.63;;;16.60;90.90;;;;;;5047499;28;20211;-76
2022/09/27 06:28:30;;;;;;;3.95;3.70;;;16.70;90.70;;;;;;5055218;28;20171;-76
2022/09/27 06:30:56;;;;;;;3.55;3.38;;;16.80;90.70;;;;;;5047181;28;20270;-76
2022/09/27 06:33:22;;;;;;;3.45;3.35;;;16.90;90.50;;;;;;5046734;28;20187;-76
2022/09/27 06:35:48;;;;;;;4.28;3.97;;;16.90;90.70;;;;;;5050568;28;20187;-76
2022/09/27 06:38:16;;;;;;;4.75;4.28;;;17.10;91.40;;;;;;5049005;28;20188;-75
2022/09/27 06:40:45;;;;;;;3.85;3.58;;;17.10;90.10;;;;;;5049150;28;20180;-75
2022/09/27 06:43:13;;;;;;;5.78;4.18;;;17.10;89.50;;;;;;5054329;28;20195;-76
2022/09/27 06:45:40;;;;;;;4.65;4.25;;;17.20;91.10;;;;;;5054703;28;20202;-76
2022/09/27 06:48:07;;;;;;;3.88;3.58;;;17.20;90.80;;;;;;5054086;28;20328;-76
2022/09/27 06:50:35;;;;;;;3.83;3.53;;;17.20;90.50;;;;;;5042714;28;20590;-76
2022/09/27 06:53:02;;;;;;;4.57;4.18;;;17.20;90.10;;;;;;5045892;28;20176;-76
2022/09/27 06:55:28;;;;;;;4.93;4.63;;;17.30;89.90;;;;;;5049010;28;20186;-75
2022/09/27 07:00:45;;;;;;;4.60;4.30;;;17.30;88.70;;;;;;5051928;28;20260;-75
2022/09/27 07:03:12;;;;;;;4.07;3.92;;;17.30;91.60;;;;;;5047575;28;20253;-75
2022/09/27 07:05:38;;;;;;;4.65;4.35;;;17.30;89.70;;;;;;5050640;28;20179;-76
2022/09/27 07:08:04;;;;;;;5.57;5.05;;;17.30;91.50;;;;;;5048481;28;20183;-75
2022/09/27 07:10:33;;;;;;;5.95;4.45;;;17.10;90.50;;;;;;5050602;28;20214;-75
2022/09/27 07:13:07;;;;;;;4.72;4.38;;;17.20;91.70;;;;;;5047920;28;20179;-75
2022/09/27 07:15:37;;;;;;;4.82;4.53;;;17.10;90.30;;;;;;5052498;28;20548;-76
2022/09/27 07:18:05;;;;;;;5.03;4.68;;;17.10;90.40;;;;;;5044796;28;20250;-76
2022/09/27 07:20:32;;;;;;;4.70;4.30;;;17.10;90.20;;;;;;5047482;28;20179;-76
2022/09/27 07:22:58;;;;;;;4.68;4.28;;;17.10;90.10;;;;;;5049109;28;20201;-75
2022/09/27 07:25:25;;;;;;;5.13;4.78;;;17.20;90.60;;;;;;5045860;28;20176;-75
2022/09/27 07:27:51;;;;;;;5.55;5.00;;;17.20;90.20;;;;;;5062350;28;20286;-76
2022/09/27 07:30:17;;;;;;;5.13;4.72;;;17.20;89.70;;;;;;5052329;28;20243;-75
2022/09/27 07:32:43;;;;;;;6.72;5.32;;;17.30;91.60;;;;;;5048377;28;20180;-75
2022/09/27 07:35:10;;;;;;;6.63;4.80;;;17.40;90.60;;;;;;5053745;28;20258;-76
2022/09/27 07:37:37;;;;;;;4.97;4.47;;;17.30;90.00;;;;;;5045022;28;20180;-75
2022/09/27 07:40:08;;;;;;;5.30;4.85;;;17.30;90.20;;;;;;5048066;28;20684;-75
2022/09/27 07:42:37;;;;;;;5.20;4.80;;;17.40;89.50;;;;;;5046486;28;20203;-75
2022/09/27 07:45:05;;;;;;;4.63;4.32;;;17.40;89.70;;;;;;5052873;28;20198;-75
2022/09/27 07:47:31;;;;;;;4.57;4.22;;;17.50;91.00;;;;;;5047584;28;20184;-75
2022/09/27 07:49:57;;;;;;;4.50;4.20;;;17.50;92.20;;;;;;5053166;28;20299;-75
2022/09/27 07:52:23;;;;;;;5.28;4.88;;;17.60;91.20;;;;;;5052468;28;20209;-75
2022/09/27 07:54:49;;;;;;;5.35;4.95;;;17.60;91.50;;;;;;5050920;28;20187;-76
2022/09/27 07:57:15;;;;;;;3.90;3.70;;;17.50;90.70;;;;;;5051719;28;20185;-76
2022/09/27 07:59:41;;;;;;;5.45;4.70;;;17.50;90.70;;;;;;5053012;28;20191;-76
2022/09/27 08:02:14;;;;;;;10.70;6.07;;;17.50;90.80;;;;;;5050236;28;20653;-76
2022/09/27 08:04:42;;;;;;;4.80;4.57;;;17.40;89.50;;;;;;5048652;28;20183;-76
2022/09/27 08:07:09;;;;;;;5.50;5.00;;;17.40;92.80;;;;;;5050013;28;20186;-77
2022/09/27 08:09:35;;;;;;;5.10;4.70;;;17.30;92.10;;;;;;5044554;28;20211;-76
2022/09/27 08:12:03;;;;;;;5.05;4.55;;;17.30;90.90;;;;;;5048746;28;20180;-76
2022/09/27 08:14:29;;;;;;;5.55;4.43;;;17.20;90.60;;;;;;5045975;28;20187;-76
2022/09/27 08:16:55;;;;;;;4.90;4.50;;;17.20;90.70;;;;;;5046600;28;20611;-74
2022/09/27 08:19:20;;;;;;;4.28;4.07;;;17.20;90.50;;;;;;5041649;28;20175;-75
2022/09/27 08:21:46;;;;;;;4.13;3.92;;;17.30;90.40;;;;;;5045061;28;20181;-74
2022/09/27 08:24:12;;;;;;;4.15;3.95;;;17.40;91.10;;;;;;5045707;28;20184;-75
2022/09/27 08:26:38;;;;;;;4.38;4.00;;;17.50;91.60;;;;;;5047460;28;20242;-74
2022/09/27 08:29:04;;;;;;;4.15;3.85;;;17.50;90.60;;;;;;5049488;28;20680;-75
2022/09/27 08:31:30;;;;;;;4.72;4.35;;;17.60;91.70;;;;;;5044477;28;20253;-77
2022/09/27 08:33:56;;;;;;;5.45;4.80;;;17.60;90.50;;;;;;5048962;28;20248;-76
2022/09/27 08:36:23;;;;;;;4.75;4.25;;;17.70;90.80;;;;;;5051183;28;20707;-76
2022/09/27 08:38:53;;;;;;;5.50;4.50;;;17.80;90.50;;;;;;5054628;28;20630;-77
2022/09/27 08:41:21;;;;;;;6.28;4.55;;;17.90;90.70;;;;;;5053447;28;20203;-77
2022/09/27 08:44:11;;;;;;;4.55;4.15;;;18.00;90.70;;;;;;5049122;28;20179;-77
2022/09/27 08:47:05;;;;;;;4.25;4.05;;;18.20;90.40;;;;;;5043625;28;20311;-77
2022/09/27 08:50:05;;;;;;;6.03;4.38;;;18.40;90.70;;;;;;5040687;28;20293;-76
2022/09/27 08:52:52;;;;;;;4.82;4.45;;;18.60;91.00;;;;;;5022003;28;20198;-76
2022/09/27 08:55:36;;;;;;;4.68;4.32;;;18.80;91.50;;;;;;5023405;28;20187;-77
2022/09/27 08:58:10;;;;;;;4.63;4.35;;;18.80;90.50;;;;;;5029435;28;20268;-78
2022/09/27 09:00:35;;;;;;;5.78;5.28;;;18.80;90.40;;;;;;5025868;28;20183;-77
2022/09/27 09:03:01;;;;;;;5.55;5.15;;;18.80;91.00;;;;;;5022553;28;20195;-75
2022/09/27 09:05:33;;;;;;;5.47;5.07;;;18.90;92.20;;;;;;5028684;28;20270;-76
2022/09/27 09:08:46;;;;;;;5.07;4.68;;;19.00;91.30;;;;;;5026566;28;20261;-76
2022/09/27 09:15:01;;;;;;;5.00;4.70;;;19.30;90.90;;;;;;5030449;28;20266;-76
2022/09/27 09:17:27;;;;;;;6.00;5.43;;;19.60;91.40;;;;;;5021686;28;20197;-76
2022/09/27 09:20:13;;;;;;;5.03;4.43;;;20.00;92.50;;;;;;5027428;28;20756;-77
2022/09/27 09:22:52;;;;;;;4.95;4.55;;;20.40;90.30;;;;;;5031474;28;20575;-76
2022/09/27 09:25:30;;;;;;;4.88;4.32;;;21.00;89.80;;;;;;5009928;28;20670;-77
2022/09/27 09:28:21;;;;;;;4.55;4.25;;;21.50;88.40;;;;;;5025562;28;20190;-77
2022/09/27 09:30:52;;;;;;;4.93;4.50;;;22.30;87.90;;;;;;5050832;28;21973;-77
2022/09/27 09:33:39;;;;;;;4.25;3.97;;;23.30;87.80;;;;;;5054128;28;20222;-76
2022/09/27 09:36:07;;;;;;;3.85;3.55;;;24.10;81.40;;;;;;5049714;28;20657;-77
2022/09/27 09:38:58;;;;;;;4.25;4.00;;;24.60;79.90;;;;;;5050666;28;20175;-76
2022/09/27 09:41:30;;;;;;;5.07;4.00;;;25.00;79.40;;;;;;5052902;28;20190;-76
2022/09/27 09:44:02;;;;;;;4.15;3.88;;;25.30;77.90;;;;;;5045954;28;20183;-75
2022/09/27 09:46:42;;;;;;;3.95;3.72;;;25.50;76.70;;;;;;5051337;28;20187;-76
2022/09/27 09:49:13;;;;;;;3.72;3.63;;;25.80;75.60;;;;;;5049370;28;20214;-77
2022/09/27 09:51:44;;;;;;;3.05;2.95;;;26.00;75.80;;;;;;5046841;28;20262;-76
2022/09/27 09:54:23;;;;;;;4.68;4.13;;;26.00;74.40;;;;;;5053238;28;20175;-75
2022/09/27 09:56:59;;;;;;;3.83;3.72;;;25.90;75.00;;;;;;5049558;28;20187;-75
2022/09/27 09:59:40;;;;;;;3.53;3.42;;;25.90;74.70;;;;;;5050979;28;20195;-76
2022/09/27 10:02:27;;;;;;;3.40;3.30;;;25.90;75.30;;;;;;5053245;28;20214;-75
2022/09/27 10:04:53;;;;;;;3.25;3.15;;;25.90;75.20;;;;;;5053375;28;20195;-76
2022/09/27 10:07:24;;;;;;;3.70;3.58;;;26.00;75.30;;;;;;5051221;28;20869;-76
2022/09/27 10:09:53;;;;;;;3.92;3.72;;;26.00;74.80;;;;;;5052137;28;20219;-76
2022/09/27 10:12:19;;;;;;;3.72;3.63;;;26.00;74.50;;;;;;5053196;28;20176;-76
2022/09/27 10:14:47;;;;;;;4.35;4.05;;;25.90;75.20;;;;;;5048757;28;20188;-77
2022/09/27 10:17:19;;;;;;;4.20;3.72;;;25.60;74.90;;;;;;5053073;28;20612;-77
2022/09/27 10:19:47;;;;;;;4.00;3.80;;;25.20;75.80;;;;;;5051850;28;20302;-76
2022/09/27 10:22:28;;;;;;;3.95;3.70;;;25.00;76.50;;;;;;5051607;28;20179;-77
2022/09/27 10:25:05;;;;;;;3.95;3.75;;;24.90;76.70;;;;;;5051931;28;20187;-77
2022/09/27 10:27:42;;;;;;;3.33;3.13;;;25.00;76.40;;;;;;5052554;28;20176;-76
2022/09/27 10:30:26;;;;;;;3.35;3.05;;;25.20;76.40;;;;;;5049346;28;20297;-77
2022/09/27 10:32:58;;;;;;;3.50;3.30;;;25.60;75.80;;;;;;5046819;28;20241;-77
2022/09/27 10:35:34;;;;;;;2.95;2.85;;;26.00;76.10;;;;;;5051618;28;20203;-77
2022/09/27 10:38:31;;;;;;;3.67;3.58;;;26.20;74.40;;;;;;5050146;28;20195;-77
2022/09/27 10:41:15;;;;;;;3.38;3.28;;;26.10;73.20;;;;;;5048775;28;20214;-77
2022/09/27 10:43:41;;;;;;;3.42;3.22;;;25.70;73.20;;;;;;5051755;28;20270;-78
2022/09/27 10:46:10;;;;;;;3.95;3.75;;;25.40;75.10;;;;;;5049944;28;20251;-77
2022/09/27 10:48:38;;;;;;;3.63;3.33;;;25.30;75.60;;;;;;5052639;28;20262;-77
2022/09/27 10:51:17;;;;;;;3.38;3.28;;;25.50;75.80;;;;;;5048006;28;20177;-77
2022/09/27 10:53:46;;;;;;;3.38;3.28;;;25.90;75.60;;;;;;5047736;28;20206;-77
2022/09/27 10:56:25;;;;;;;2.97;2.78;;;26.70;74.80;;;;;;5052110;28;20755;-77
2022/09/27 10:58:51;;;;;;;3.25;3.03;;;27.80;73.50;;;;;;5049646;28;20215;-77
2022/09/27 11:01:17;;;;;;;2.90;2.70;;;28.70;70.20;;;;;;5050521;28;20222;-77
2022/09/27 11:03:54;;;;;;;4.07;3.65;;;29.60;69.50;;;;;;5050081;28;20296;-77
2022/09/27 11:06:22;;;;;;;3.95;3.17;;;30.40;68.30;;;;;;5045776;28;20187;-77
2022/09/27 11:08:50;;;;;;;2.92;2.83;;;31.20;66.70;;;;;;5049254;28;20188;-77
2022/09/27 11:11:23;;;;;;;3.40;3.30;;;31.90;65.40;;;;;;5052102;28;20692;-77
2022/09/27 11:14:06;;;;;;;3.25;2.88;;;32.70;64.40;;;;;;5052968;28;20690;-77
2022/09/27 11:16:54;;;;;;;2.85;2.75;;;33.40;62.50;;;;;;5050865;28;20190;-77
2022/09/27 11:19:33;;;;;;;3.22;2.80;;;34.10;61.10;;;;;;5051388;28;20191;-78
2022/09/27 11:22:21;;;;;;;2.67;2.58;;;34.70;60.90;;;;;;5051550;28;20181;-78
2022/09/27 11:25:02;;;;;;;3.08;2.92;;;35.20;59.70;;;;;;5051387;28;20737;-78
2022/09/27 11:27:53;;;;;;;2.60;2.60;;;35.40;58.00;;;;;;5050594;28;20187;-78
2022/09/27 11:30:21;;;;;;;2.90;2.80;;;35.20;57.70;;;;;;5049370;28;21029;-76
2022/09/27 11:33:21;;;;;;;2.78;2.40;;;35.20;58.80;;;;;;5046695;28;20258;-76
2022/09/27 11:36:06;;;;;;;2.45;2.28;;;35.30;57.60;;;;;;5046147;28;20213;-77
2022/09/27 11:38:48;;;;;;;2.00;1.90;;;35.40;58.80;;;;;;5052222;28;20935;-77
2022/09/27 11:41:39;;;;;;;1.67;1.67;;;35.80;56.70;;;;;;5053219;28;20263;-77
2022/09/27 11:44:40;;;;;;;2.22;2.13;;;36.10;56.20;;;;;;5054934;28;20209;-77
2022/09/27 11:47:20;;;;;;;1.85;1.83;;;36.30;56.70;;;;;;5055561;28;20584;-77
2022/09/27 11:50:11;;;;;;;1.88;1.88;;;36.60;56.20;;;;;;5051658;28;20295;-77
2022/09/27 11:53:04;;;;;;;1.95;1.95;;;36.80;54.70;;;;;;5054366;28;20182;-77
2022/09/27 11:55:30;;;;;;;1.90;1.90;;;37.00;54.00;;;;;;5049019;28;20632;-77
2022/09/27 11:58:14;;;;;;;3.35;1.80;;;37.10;54.50;;;;;;5057514;28;20182;-77
2022/09/27 12:01:04;;;;;;;1.88;1.88;;;37.40;54.80;;;;;;5058014;28;20178;-77
2022/09/27 12:04:19;;;;;;;3.70;1.88;;;37.60;52.40;;;;;;5054512;28;20214;-74
2022/09/27 12:06:50;;;;;;;2.25;1.98;;;37.60;53.40;;;;;;5053677;28;20203;-74
2022/09/27 12:09:42;;;;;;;1.70;1.70;;;37.50;51.90;;;;;;5047563;28;20211;-76
2022/09/27 12:12:19;;;;;;;2.05;2.05;;;37.30;52.40;;;;;;5045033;28;20223;-75
2022/09/27 12:14:55;;;;;;;2.00;2.00;;;37.20;53.30;;;;;;5048796;28;20194;-75
2022/09/27 12:17:30;;;;;;;1.90;1.90;;;37.30;54.00;;;;;;5046812;28;20282;-75
2022/09/27 12:19:58;;;;;;;3.80;2.20;;;37.50;54.30;;;;;;5031914;28;20178;-76
2022/09/27 12:22:31;;;;;;;2.00;1.98;;;37.50;53.80;;;;;;5050759;28;20672;-76
2022/09/27 12:24:58;;;;;;;1.85;1.85;;;37.50;52.80;;;;;;5051589;28;20194;-76
2022/09/27 12:27:44;;;;;;;1.67;1.63;;;37.60;52.60;;;;;;5042486;28;20217;-76
2022/09/27 12:30:12;;;;;;;2.85;1.40;;;37.60;51.50;;;;;;5041024;28;20229;-76
2022/09/27 12:32:49;;;;;;;2.88;2.17;;;37.50;52.20;;;;;;5045960;28;20179;-76
2022/09/27 12:35:26;;;;;;;1.60;1.50;;;37.40;52.60;;;;;;5046961;28;20189;-76
2022/09/27 12:38:18;;;;;;;1.42;1.42;;;37.40;52.10;;;;;;5048179;28;20236;-75
2022/09/27 12:40:50;;;;;;;1.73;1.73;;;37.40;51.30;;;;;;4950168;28;20202;-75
2022/09/27 12:43:17;;;;;;;1.60;1.60;;;37.60;53.00;;;;;;4959553;28;20197;-75
2022/09/27 12:46:03;;;;;;;1.48;1.48;;;37.90;53.20;;;;;;4978670;28;20209;-75
2022/09/27 12:48:38;;;;;;;1.90;1.80;;;38.00;50.90;;;;;;4977677;28;20189;-77
2022/09/27 12:51:16;;;;;;;1.63;1.63;;;38.10;53.40;;;;;;4962753;28;20318;-77
2022/09/27 12:54:07;;;;;;;1.58;1.48;;;38.10;50.50;;;;;;4975215;28;20728;-75
2022/09/27 12:56:33;;;;;;;1.80;1.80;;;37.90;51.30;;;;;;4963842;28;20185;-76
2022/09/27 12:59:11;;;;;;;1.45;1.40;;;37.80;52.80;;;;;;4979222;28;20227;-76
2022/09/27 13:01:58;;;;;;;1.88;1.77;;;37.90;51.70;;;;;;4979131;28;21535;-76
2022/09/27 13:04:56;;;;;;;2.05;1.67;;;37.90;50.40;;;;;;4977699;28;20196;-76
2022/09/27 13:07:42;;;;;;;1.75;1.75;;;37.30;49.60;;;;;;4983271;28;20273;-76
2022/09/27 13:10:25;;;;;;;1.50;1.50;;;36.90;51.00;;;;;;4985554;28;20213;-78
2022/09/27 13:12:54;;;;;;;1.42;1.42;;;36.30;50.90;;;;;;4989145;28;20343;-78
2022/09/27 13:15:32;;;;;;;1.38;1.38;;;35.70;51.50;;;;;;4984695;28;20189;-78
2022/09/27 13:18:02;;;;;;;1.42;1.38;;;35.30;51.80;;;;;;5029284;28;20194;-78
2022/09/27 13:20:33;;;;;;;1.67;1.30;;;34.90;52.40;;;;;;5056528;28;20187;-78
2022/09/27 13:23:01;;;;;;;2.35;1.33;;;34.70;52.90;;;;;;5050696;28;20265;-76
2022/09/27 13:25:46;;;;;;;1.70;1.60;;;34.60;53.80;;;;;;5053277;28;20198;-76